createdAt,value
2023-03-21T06:15:58.685Z,100629.69
2023-03-21T06:19:02.822Z,100639.34
2023-03-21T06:22:06.057Z,100654.22
2023-03-21T06:25:10.210Z,100670.91
2023-03-21T06:28:12.638Z,100686.31
2023-03-21T06:31:16.535Z,100683.47
2023-03-21T06:34:19.110Z,100684.91
2023-03-21T06:37:21.599Z,100683.19
2023-03-21T06:40:24.031Z,100687.38
2023-03-21T06:43:26.620Z,100685.69
2023-03-21T06:46:30.803Z,100689.69
2023-03-21T06:49:33.537Z,100697.03
2023-03-21T06:52:35.984Z,100700.03
2023-03-21T06:55:38.720Z,100700.88
2023-03-21T06:58:41.759Z,100706.03
2023-03-21T07:01:45.653Z,100710.44
2023-03-21T07:04:48.052Z,100712.16
2023-03-21T07:07:50.777Z,100717.59
2023-03-21T07:10:57.725Z,100717.31
2023-03-21T07:14:00.583Z,100717.31
2023-03-21T07:17:04.443Z,100718.31
2023-03-21T07:20:08.241Z,100722.78
2023-03-21T07:23:10.757Z,100714.19
2023-03-21T07:26:13.327Z,100720.69
2023-03-21T07:29:17.526Z,100718.53
2023-03-21T07:32:21.312Z,100724.09
2023-03-21T07:35:23.741Z,100725.69
2023-03-21T07:38:27.035Z,100730.50
2023-03-21T07:41:29.468Z,100726.69
2023-03-21T07:44:33.578Z,100724.50
2023-03-21T07:47:37.629Z,100731.97
2023-03-21T07:50:40.588Z,100719.59
2023-03-21T07:53:43.844Z,100724.69
2023-03-21T07:56:46.452Z,100724.00
2023-03-21T07:59:49.058Z,100723.13
2023-03-21T08:02:57.880Z,100724.75
2023-03-21T08:06:01.974Z,100725.53
2023-03-21T08:09:04.846Z,100712.56
2023-03-21T08:12:08.348Z,100726.63
2023-03-21T08:15:12.512Z,100725.81
2023-03-21T08:18:16.296Z,100730.53
2023-03-21T08:21:19.080Z,100737.34
2023-03-21T08:24:21.689Z,100730.38
2023-03-21T08:27:24.190Z,100727.91
2023-03-21T08:30:29.125Z,100728.44
2023-03-21T08:33:32.876Z,100728.88
2023-03-21T08:36:36.881Z,100733.72
2023-03-21T08:39:39.723Z,100731.78
2023-03-21T08:42:42.698Z,100732.31
2023-03-21T08:45:45.132Z,100731.09
2023-03-21T08:48:48.870Z,100735.88
2023-03-21T08:51:51.492Z,100733.75
2023-03-21T08:54:54.030Z,100734.59
2023-03-21T08:57:57.212Z,100738.38
2023-03-21T09:00:59.639Z,100730.22
2023-03-21T09:04:04.300Z,100733.84
2023-03-21T09:07:07.026Z,100732.28
2023-03-21T09:10:21.121Z,100730.78
2023-03-21T09:13:24.799Z,100727.59
2023-03-21T09:16:27.384Z,100736.22
2023-03-21T09:19:31.871Z,100732.13
2023-03-21T09:22:34.447Z,100731.09
2023-03-21T09:25:37.561Z,100727.16
2023-03-21T09:28:40.884Z,100732.53
2023-03-21T09:31:44.094Z,100726.63
2023-03-21T09:34:48.995Z,100718.19
2023-03-21T09:37:51.553Z,100720.41
2023-03-21T09:41:05.783Z,100718.78
2023-03-21T09:44:24.705Z,100725.22
2023-03-21T09:47:34.785Z,100731.66
2023-03-21T09:50:40.433Z,100724.38
2023-03-21T09:53:45.634Z,100726.47
2023-03-21T09:56:50.724Z,100726.00
2023-03-21T09:59:54.734Z,100716.84
2023-03-21T10:03:01.688Z,100715.34
2023-03-21T10:06:13.139Z,100716.56
2023-03-21T10:09:21.469Z,100721.06
2023-03-21T10:12:30.448Z,100718.50
2023-03-21T10:15:32.930Z,100719.34
2023-03-21T10:18:37.266Z,100715.78
2023-03-21T10:21:59.598Z,100717.53
2023-03-21T10:25:02.992Z,100704.25
2023-03-21T10:28:08.400Z,100706.41
2023-03-21T10:31:15.779Z,100699.72
2023-03-21T10:34:21.643Z,100690.13
2023-03-21T10:37:26.955Z,100695.41
2023-03-21T10:40:29.418Z,100695.91
2023-03-21T10:43:38.603Z,100696.84
2023-03-21T10:46:52.546Z,100696.69
2023-03-21T10:50:07.313Z,100687.06
2023-03-21T10:53:19.783Z,100688.50
2023-03-21T10:56:26.545Z,100690.78
2023-03-21T10:59:36.407Z,100688.94
2023-03-21T11:02:39.233Z,100687.31
2023-03-21T11:05:42.924Z,100692.88
2023-03-21T11:08:50.043Z,100678.19
2023-03-21T11:11:55.781Z,100688.50
2023-03-21T11:14:58.252Z,100689.88
2023-03-21T11:18:01.566Z,100678.13
2023-03-21T11:21:07.219Z,100685.19
2023-03-21T11:24:14.988Z,100672.63
2023-03-21T11:27:17.477Z,100671.19
2023-03-21T11:30:22.797Z,100669.59
2023-03-21T11:33:28.947Z,100670.41
2023-03-21T11:36:38.011Z,100659.41
2023-03-21T11:39:43.810Z,100658.41
2023-03-21T11:42:49.748Z,100663.91
2023-03-21T11:45:58.531Z,100663.34
2023-03-21T11:49:01.889Z,100653.44
2023-03-21T11:52:16.093Z,100657.59
2023-03-21T11:55:41.193Z,100649.09
2023-03-21T11:58:53.619Z,100636.75
2023-03-21T12:02:10.709Z,100636.09
2023-03-21T12:05:21.673Z,100638.31
2023-03-21T12:08:39.069Z,100633.63
2023-03-21T12:11:56.256Z,100625.53
2023-03-21T12:15:04.317Z,100627.84
2023-03-21T12:18:22.272Z,100634.69
2023-03-21T12:21:32.350Z,100629.38
2023-03-21T12:24:42.487Z,100618.13
2023-03-21T12:27:54.290Z,100664.06
2023-03-21T12:31:06.901Z,100642.41
2023-03-21T12:34:20.646Z,100637.50
2023-03-21T12:37:30.388Z,100633.06
2023-03-21T12:40:45.489Z,100619.72
2023-03-21T12:43:55.403Z,100626.00
2023-03-21T12:47:02.225Z,100597.38
2023-03-21T12:50:14.431Z,100608.50
2023-03-21T12:53:37.798Z,100610.63
2023-03-21T12:56:47.988Z,100600.97
2023-03-21T12:59:59.934Z,100593.28
2023-03-21T13:03:04.975Z,100596.53
2023-03-21T13:06:10.679Z,100582.44
2023-03-21T13:09:23.429Z,100580.97
2023-03-21T13:12:44.196Z,100589.22
2023-03-21T13:15:56.354Z,100586.59
2023-03-21T13:19:06.779Z,100585.41
2023-03-21T13:22:27.118Z,100579.75
2023-03-21T13:25:33.218Z,100567.28
2023-03-21T13:28:37.199Z,100567.72
2023-03-21T13:31:52.228Z,100562.50
2023-03-21T13:34:57.218Z,100555.09
2023-03-21T13:38:05.594Z,100549.28
2023-03-21T13:41:10.362Z,100553.94
2023-03-21T13:44:24.174Z,100550.28
2023-03-21T13:47:38.851Z,100546.88
2023-03-21T13:50:53.056Z,100545.59
2023-03-21T13:54:01.348Z,100544.28
2023-03-21T13:57:06.327Z,100540.84
2023-03-21T14:00:18.927Z,100537.44
2023-03-21T14:03:24.693Z,100531.13
2023-03-21T14:06:34.641Z,100532.69
2023-03-21T14:09:40.140Z,100526.84
2023-03-21T14:12:45.347Z,100525.38
2023-03-21T14:15:55.905Z,100519.66
2023-03-21T14:19:03.665Z,100516.41
2023-03-21T14:22:14.028Z,100517.22
2023-03-21T14:25:18.476Z,100517.94
2023-03-21T14:28:23.914Z,100508.31
2023-03-21T14:31:27.453Z,100506.69
2023-03-21T14:34:34.211Z,100496.47
2023-03-21T14:37:39.996Z,100498.22
2023-03-21T14:40:48.551Z,100503.00
2023-03-21T14:44:03.069Z,100508.19
2023-03-21T14:47:07.617Z,100495.84
2023-03-21T14:50:13.206Z,100486.72
2023-03-21T14:53:19.500Z,100491.88
2023-03-21T14:56:25.195Z,100473.16
2023-03-21T14:59:32.783Z,100475.81
2023-03-21T15:02:37.441Z,100473.34
2023-03-21T15:05:42.744Z,100467.34
2023-03-21T15:08:55.793Z,100466.16
2023-03-21T15:11:59.316Z,100462.16
2023-03-21T15:15:03.101Z,100458.41
2023-03-21T15:18:07.862Z,100454.81
2023-03-21T15:21:16.486Z,100448.34
2023-03-21T15:24:23.318Z,100436.22
2023-03-21T15:27:26.332Z,100446.31
2023-03-21T15:30:31.158Z,100454.41
2023-03-21T15:33:34.263Z,100444.66
2023-03-21T15:36:45.806Z,100443.66
2023-03-21T15:39:49.331Z,100438.19
2023-03-21T15:42:52.247Z,100426.50
2023-03-21T15:45:57.037Z,100442.88
2023-03-21T15:49:08.618Z,100428.44
2023-03-21T15:52:15.894Z,100429.59
2023-03-21T15:55:25.884Z,100424.09
2023-03-21T15:58:36.012Z,100424.59
2023-03-21T16:01:39.023Z,100421.13
2023-03-21T16:04:57.255Z,100427.69
2023-03-21T16:08:06.892Z,100422.41
2023-03-21T16:11:14.992Z,100417.63
2023-03-21T16:14:18.655Z,100420.97
